createdAt,value
2018-07-30T00:00:58.008Z,4.80
2018-07-30T00:01:58.005Z,5.10
2018-07-30T00:02:57.994Z,4.90
2018-07-30T00:03:57.986Z,5.10
2018-07-30T00:04:57.981Z,5.20
2018-07-30T00:05:57.970Z,4.40
2018-07-30T00:06:57.964Z,5.20
2018-07-30T00:07:57.954Z,5.10
2018-07-30T00:08:57.957Z,4.70
2018-07-30T00:09:57.948Z,5.50
2018-07-30T00:10:57.941Z,5.10
2018-07-30T00:11:57.937Z,5.30
2018-07-30T00:12:57.920Z,4.70
2018-07-30T00:13:57.589Z,5.00
2018-07-30T00:14:57.922Z,4.90
2018-07-30T00:15:57.911Z,5.00
2018-07-30T00:16:57.902Z,5.50
2018-07-30T00:18:10.628Z,5.30
2018-07-30T00:18:57.880Z,5.50
2018-07-30T00:19:57.876Z,5.40
2018-07-30T00:20:57.875Z,5.10
2018-07-30T00:21:57.868Z,5.00
2018-07-30T00:22:57.864Z,5.00
2018-07-30T00:23:57.853Z,5.20
2018-07-30T00:24:57.851Z,5.90
2018-07-30T00:25:57.836Z,5.90
2018-07-30T00:26:57.837Z,5.10
2018-07-30T00:27:57.828Z,4.90
2018-07-30T00:28:57.823Z,5.00
2018-07-30T00:29:57.811Z,5.00
2018-07-30T00:30:57.812Z,4.90
2018-07-30T00:31:57.807Z,5.00
2018-07-30T00:32:57.798Z,6.40
2018-07-30T00:33:57.799Z,5.80
2018-07-30T00:34:57.776Z,5.00
2018-07-30T00:35:57.428Z,5.10
2018-07-30T00:36:57.770Z,5.30
2018-07-30T00:37:57.762Z,4.80
2018-07-30T00:38:57.755Z,5.40
2018-07-30T00:39:57.423Z,5.60
2018-07-30T00:40:57.746Z,4.40
2018-07-30T00:41:57.405Z,5.80
2018-07-30T00:42:57.418Z,4.90
2018-07-30T00:43:57.725Z,4.70
2018-07-30T00:44:57.718Z,5.00
2018-07-30T00:45:57.368Z,5.70
2018-07-30T00:46:57.704Z,4.80
2018-07-30T00:47:57.349Z,5.10
2018-07-30T00:48:57.363Z,4.80
2018-07-30T00:49:57.685Z,5.10
2018-07-30T00:50:57.336Z,5.40
2018-07-30T00:51:57.670Z,4.90
2018-07-30T00:52:57.667Z,5.40
2018-07-30T00:53:57.302Z,4.90
2018-07-30T00:54:57.688Z,5.40
2018-07-30T00:55:57.649Z,5.20
2018-07-30T00:56:57.762Z,4.80
2018-07-30T00:57:57.631Z,5.60
2018-07-30T00:58:57.292Z,5.30
2018-07-30T00:59:57.619Z,5.20
2018-07-30T01:00:57.267Z,4.90
2018-07-30T01:01:57.608Z,5.00
2018-07-30T01:02:57.590Z,5.30
2018-07-30T01:03:57.264Z,5.40
2018-07-30T01:04:57.583Z,5.10
2018-07-30T01:05:57.592Z,5.50
2018-07-30T01:06:57.229Z,5.20
2018-07-30T01:07:57.568Z,4.90
2018-07-30T01:08:57.215Z,5.10
2018-07-30T01:09:57.206Z,4.80
2018-07-30T01:10:57.544Z,5.20
2018-07-30T01:11:57.183Z,5.90
2018-07-30T01:12:57.178Z,5.20
2018-07-30T01:13:57.170Z,4.70
2018-07-30T01:14:57.514Z,5.50
2018-07-30T01:15:57.512Z,5.90
2018-07-30T01:16:57.509Z,4.90
2018-07-30T01:17:57.169Z,5.00
2018-07-30T01:18:57.499Z,5.70
2018-07-30T01:19:57.486Z,5.50
2018-07-30T01:20:57.480Z,4.80
2018-07-30T01:21:57.128Z,5.40
2018-07-30T01:22:57.468Z,5.40
2018-07-30T01:23:57.123Z,5.00
2018-07-30T01:24:57.115Z,5.50
2018-07-30T01:25:57.105Z,5.00
2018-07-30T01:26:57.134Z,5.40
2018-07-30T01:27:57.435Z,5.40
2018-07-30T01:28:57.081Z,5.00
2018-07-30T01:29:57.421Z,5.30
2018-07-30T01:30:57.415Z,5.30
2018-07-30T01:31:57.059Z,5.00
2018-07-30T01:32:57.075Z,5.20
2018-07-30T01:33:57.393Z,5.50
2018-07-30T01:34:57.388Z,5.70
2018-07-30T01:35:57.028Z,5.30
2018-07-30T01:36:57.383Z,5.40
2018-07-30T01:37:57.370Z,5.50
2018-07-30T01:38:57.031Z,4.70
2018-07-30T01:39:57.353Z,5.70
2018-07-30T01:40:57.349Z,4.50
2018-07-30T01:41:57.344Z,5.00
2018-07-30T01:42:56.982Z,5.90
2018-07-30T01:43:57.328Z,6.50
2018-07-30T01:44:56.968Z,5.50
2018-07-30T01:47:32.118Z,5.50
2018-07-30T01:49:51.921Z,5.30
2018-07-30T01:50:51.895Z,5.70
2018-07-30T01:52:45.820Z,5.60
2018-07-30T01:55:27.513Z,5.10
2018-07-30T01:56:27.101Z,5.70
2018-07-30T01:58:21.036Z,5.40
2018-07-30T01:59:20.786Z,5.10
2018-07-30T02:01:14.141Z,4.80
2018-07-30T02:02:14.147Z,4.60
2018-07-30T02:04:07.619Z,5.60
2018-07-30T02:05:07.475Z,5.50
2018-07-30T02:07:24.589Z,5.40
2018-07-30T02:08:00.462Z,5.70
2018-07-30T02:10:53.126Z,5.60
2018-07-30T02:11:16.340Z,5.90
2018-07-30T02:13:10.019Z,5.60
2018-07-30T02:14:10.011Z,5.20
2018-07-30T02:16:03.573Z,5.40
2018-07-30T02:17:03.357Z,5.80
2018-07-30T02:18:56.353Z,5.00
2018-07-30T02:19:56.345Z,4.90
2018-07-30T02:21:50.269Z,5.10
2018-07-30T02:22:50.036Z,5.20
2018-07-30T02:24:43.041Z,5.00
2018-07-30T02:25:43.370Z,5.20
2018-07-30T02:27:36.952Z,5.30
2018-07-30T02:28:36.376Z,6.40
2018-07-30T02:30:30.076Z,5.50
2018-07-30T02:31:30.061Z,5.10
2018-07-30T02:33:23.859Z,4.90
2018-07-30T02:34:23.411Z,5.30
2018-07-30T02:36:16.758Z,5.30
2018-07-30T02:37:16.405Z,5.00
2018-07-30T02:39:10.271Z,7.20
2018-07-30T02:40:10.085Z,4.90
2018-07-30T02:42:03.110Z,5.70
2018-07-30T02:43:03.431Z,5.30
2018-07-30T02:44:57.004Z,5.40
2018-07-30T02:45:56.422Z,4.40
2018-07-30T02:47:49.885Z,4.90
2018-07-30T02:48:50.116Z,4.50
2018-07-30T02:50:43.679Z,5.00
2018-07-30T02:51:43.457Z,4.70
2018-07-30T02:53:36.481Z,5.20
2018-07-30T02:54:36.800Z,5.90
2018-07-30T02:56:30.049Z,5.50
2018-07-30T02:57:29.819Z,7.50
2018-07-30T02:59:23.494Z,5.40
2018-07-30T03:00:23.159Z,5.80
2018-07-30T03:02:17.291Z,4.80
2018-07-30T03:03:16.493Z,5.60
2018-07-30T03:05:10.422Z,5.10
2018-07-30T03:06:09.835Z,5.70
2018-07-30T03:08:03.386Z,5.70
2018-07-30T03:09:03.509Z,5.40
2018-07-30T03:10:56.859Z,6.40
2018-07-30T03:11:56.851Z,6.70
2018-07-30T03:13:50.677Z,6.00
2018-07-30T03:14:50.197Z,5.90
2018-07-30T03:16:44.134Z,6.50
2018-07-30T03:17:43.538Z,7.10
2018-07-30T03:19:37.068Z,5.20
2018-07-30T03:20:36.871Z,5.20
2018-07-30T03:22:30.244Z,5.90
2018-07-30T03:23:29.857Z,5.20
2018-07-30T03:25:23.467Z,6.20
2018-07-30T03:26:23.233Z,5.70
2018-07-30T03:28:16.575Z,6.50
2018-07-30T03:29:16.541Z,5.40
2018-07-30T03:31:10.444Z,5.50
2018-07-30T03:32:10.248Z,5.90
2018-07-30T03:34:03.597Z,5.30
2018-07-30T03:35:03.251Z,4.90
2018-07-30T03:36:57.751Z,5.50
2018-07-30T03:37:56.928Z,5.20
2018-07-30T03:39:50.289Z,5.90
2018-07-30T03:40:49.941Z,5.90
2018-07-30T03:42:43.827Z,5.20
2018-07-30T03:43:43.619Z,5.70
2018-07-30T03:45:36.977Z,5.60
2018-07-30T03:46:36.967Z,6.90
2018-07-30T03:48:30.487Z,6.80
2018-07-30T03:49:29.954Z,6.20
2018-07-30T03:51:24.249Z,5.30
2018-07-30T03:52:23.644Z,5.00
2018-07-30T03:54:17.812Z,5.40
2018-07-30T03:55:16.669Z,4.90
2018-07-30T03:57:10.332Z,5.30
2018-07-30T03:58:10.324Z,5.40
2018-07-30T04:00:03.903Z,5.40
2018-07-30T04:01:03.322Z,5.30
2018-07-30T04:02:56.700Z,5.00
2018-07-30T04:03:56.691Z,5.00
2018-07-30T04:05:50.610Z,6.20
2018-07-30T04:06:50.342Z,6.00
2018-07-30T04:08:43.366Z,5.30
2018-07-30T04:09:43.338Z,5.20
2018-07-30T04:11:37.269Z,5.30
2018-07-30T04:12:37.052Z,4.90
2018-07-30T04:14:30.033Z,5.30
2018-07-30T04:15:30.029Z,5.50
2018-07-30T04:17:23.693Z,6.00
2018-07-30T04:18:23.368Z,6.00
2018-07-30T04:20:17.073Z,5.40
2018-07-30T04:21:17.064Z,5.70
2018-07-30T04:23:10.316Z,5.00
2018-07-30T04:24:10.404Z,5.20
2018-07-30T04:26:03.397Z,5.40
2018-07-30T04:27:03.745Z,5.60
2018-07-30T04:28:57.318Z,5.50
2018-07-30T04:29:57.089Z,5.40
2018-07-30T04:31:50.102Z,5.50
2018-07-30T04:32:50.096Z,5.20
2018-07-30T04:34:43.642Z,5.50
2018-07-30T04:35:43.774Z,5.60
2018-07-30T04:37:36.770Z,5.30
2018-07-30T04:38:37.113Z,4.90
2018-07-30T04:40:30.684Z,5.70
2018-07-30T04:41:30.106Z,5.30
2018-07-30T04:43:23.811Z,4.90
2018-07-30T04:44:23.797Z,4.60
2018-07-30T04:46:17.038Z,5.60
2018-07-30T04:47:17.178Z,5.40
2018-07-30T04:49:10.159Z,5.10
2018-07-30T04:50:10.491Z,5.10
2018-07-30T04:52:04.060Z,5.20
2018-07-30T04:53:03.480Z,4.90
2018-07-30T04:54:57.178Z,5.20
2018-07-30T04:55:56.833Z,5.20
2018-07-30T04:57:50.756Z,4.90
2018-07-30T04:58:50.517Z,5.60
2018-07-30T05:00:43.866Z,5.60
2018-07-30T05:01:43.515Z,4.70
2018-07-30T05:03:37.436Z,4.80
2018-07-30T05:04:36.855Z,6.50
2018-07-30T05:06:30.550Z,5.40
2018-07-30T05:07:30.545Z,5.00
2018-07-30T05:09:23.779Z,6.00
2018-07-30T05:10:23.537Z,5.50
2018-07-30T05:12:17.230Z,4.90
2018-07-30T05:13:17.224Z,4.80
2018-07-30T05:15:10.751Z,5.00
2018-07-30T05:16:10.216Z,4.80
2018-07-30T05:18:03.910Z,5.20
2018-07-30T05:19:03.574Z,5.50
2018-07-30T05:20:57.472Z,5.40
2018-07-30T05:21:56.914Z,5.30
2018-07-30T05:23:51.199Z,5.20
2018-07-30T05:24:50.271Z,5.60
2018-07-30T05:26:44.177Z,6.10
2018-07-30T05:27:43.939Z,4.90
2018-07-30T05:29:37.536Z,5.90
2018-07-30T05:30:37.277Z,5.60
2018-07-30T05:31:37.323Z,5.50
2018-07-30T05:32:36.916Z,5.70
2018-07-30T05:33:36.907Z,7.60
2018-07-30T05:34:37.250Z,16.10
2018-07-30T05:35:37.243Z,10.60
2018-07-30T05:36:36.930Z,7.60
2018-07-30T05:37:37.235Z,9.90
2018-07-30T05:38:36.877Z,8.30
2018-07-30T05:39:36.872Z,7.40
2018-07-30T05:40:37.210Z,8.50
2018-07-30T05:41:36.875Z,7.20
2018-07-30T05:42:37.200Z,9.50
2018-07-30T05:43:36.836Z,9.20
2018-07-30T05:44:37.183Z,8.60
2018-07-30T05:45:36.864Z,7.20
2018-07-30T05:46:36.819Z,11.30
2018-07-30T05:47:37.172Z,9.60
2018-07-30T05:48:36.821Z,11.60
2018-07-30T05:49:36.803Z,10.60
2018-07-30T05:50:36.809Z,10.80
2018-07-30T05:51:37.138Z,10.10
2018-07-30T05:52:37.140Z,9.10
2018-07-30T05:53:37.131Z,10.30
2018-07-30T05:54:36.782Z,9.30
2018-07-30T05:55:36.788Z,9.60
2018-07-30T05:56:36.823Z,12.70
2018-07-30T05:57:37.106Z,9.60
2018-07-30T05:58:36.746Z,12.00
2018-07-30T05:59:37.179Z,10.10
2018-07-30T06:00:37.099Z,9.40
2018-07-30T06:01:37.083Z,8.50
2018-07-30T06:02:36.722Z,9.70
2018-07-30T06:03:37.072Z,8.10
2018-07-30T06:04:36.708Z,12.30
2018-07-30T06:05:36.698Z,9.20
2018-07-30T06:06:36.719Z,8.50
2018-07-30T06:07:36.711Z,9.20
2018-07-30T06:08:37.037Z,9.00
2018-07-30T06:09:37.049Z,10.20
2018-07-30T06:10:36.718Z,9.30
2018-07-30T06:11:37.012Z,8.50
2018-07-30T06:12:36.993Z,8.60
2018-07-30T06:13:36.989Z,10.60
2018-07-30T06:14:37.005Z,9.70
2018-07-30T06:15:36.685Z,8.30
2018-07-30T06:16:36.981Z,8.10
2018-07-30T06:17:36.639Z,11.70
2018-07-30T06:18:36.622Z,10.30
2018-07-30T06:19:36.969Z,8.20
2018-07-30T06:20:36.626Z,10.10
2018-07-30T06:21:36.646Z,8.80
2018-07-30T06:22:36.619Z,11.40
2018-07-30T06:23:36.947Z,7.70
2018-07-30T06:24:36.939Z,8.40
2018-07-30T06:25:36.614Z,8.00
2018-07-30T06:26:36.928Z,9.90
2018-07-30T06:27:36.571Z,8.70
2018-07-30T06:28:36.921Z,7.60
2018-07-30T06:29:36.892Z,9.90
2018-07-30T06:30:36.559Z,7.60
2018-07-30T06:31:36.879Z,8.50
2018-07-30T06:32:36.890Z,7.50
2018-07-30T06:33:36.524Z,9.40
2018-07-30T06:34:36.877Z,7.90
2018-07-30T06:35:36.532Z,9.10
2018-07-30T06:36:36.517Z,6.60
2018-07-30T06:37:36.523Z,10.00
2018-07-30T06:38:36.835Z,8.80
2018-07-30T06:39:36.854Z,10.60
2018-07-30T06:40:36.506Z,8.10
2018-07-30T06:41:36.502Z,8.60
2018-07-30T06:42:36.468Z,9.40
2018-07-30T06:43:36.478Z,6.70
2018-07-30T06:44:36.528Z,7.40
2018-07-30T06:45:36.465Z,7.40
2018-07-30T06:46:36.467Z,8.80
2018-07-30T06:47:36.465Z,8.60
2018-07-30T06:48:36.771Z,8.80
2018-07-30T06:49:36.438Z,6.80
2018-07-30T06:50:36.777Z,7.20
2018-07-30T06:51:36.439Z,6.90
2018-07-30T06:52:36.436Z,7.20
2018-07-30T06:53:36.740Z,8.80
2018-07-30T06:54:36.421Z,8.10
2018-07-30T06:55:36.730Z,7.00
2018-07-30T06:56:36.720Z,9.50
2018-07-30T06:57:36.733Z,7.20
2018-07-30T06:58:36.378Z,7.60
2018-07-30T06:59:36.725Z,8.00
2018-07-30T07:00:36.384Z,7.60
2018-07-30T07:01:36.683Z,8.70
2018-07-30T07:02:36.334Z,7.10
2018-07-30T07:03:36.349Z,7.40
2018-07-30T07:04:36.370Z,7.50
2018-07-30T07:05:36.340Z,9.20
2018-07-30T07:06:36.657Z,6.80
2018-07-30T07:07:36.309Z,8.20
2018-07-30T07:08:36.325Z,6.90
2018-07-30T07:09:36.318Z,8.90
2018-07-30T07:10:36.320Z,7.40
2018-07-30T07:11:36.303Z,8.70
2018-07-30T07:12:36.620Z,7.00
2018-07-30T07:13:36.618Z,8.80
2018-07-30T07:14:36.276Z,8.20
2018-07-30T07:15:36.622Z,7.80
2018-07-30T07:16:36.693Z,7.60
2018-07-30T07:17:36.604Z,7.30
2018-07-30T07:18:36.258Z,8.10
2018-07-30T07:19:36.255Z,7.40
2018-07-30T07:20:36.263Z,8.50
2018-07-30T07:21:36.569Z,7.90
2018-07-30T07:22:36.559Z,9.30
2018-07-30T07:23:36.566Z,8.00
2018-07-30T07:24:36.233Z,10.60
2018-07-30T07:25:36.559Z,9.30
2018-07-30T07:26:36.207Z,7.50
2018-07-30T07:27:36.201Z,6.50
2018-07-30T07:28:36.194Z,9.30
2018-07-30T07:29:36.176Z,6.50
2018-07-30T07:30:37.415Z,10.00
2018-07-30T07:31:36.525Z,7.50
2018-07-30T07:32:36.169Z,7.60
2018-07-30T07:33:36.491Z,8.80
2018-07-30T07:34:36.143Z,7.20
2018-07-30T07:35:36.499Z,7.80
2018-07-30T07:36:36.158Z,8.40
2018-07-30T07:37:36.481Z,9.20
2018-07-30T07:38:36.148Z,8.30
2018-07-30T07:39:36.123Z,6.70
2018-07-30T07:40:36.466Z,7.00
2018-07-30T07:41:36.444Z,7.50
2018-07-30T07:42:36.450Z,7.70
2018-07-30T07:43:36.444Z,7.70
2018-07-30T07:44:36.437Z,9.10
2018-07-30T07:45:36.103Z,8.00
2018-07-30T07:46:36.083Z,8.30
2018-07-30T07:47:36.424Z,7.60
2018-07-30T07:48:36.084Z,8.20
2018-07-30T07:49:36.084Z,6.60
2018-07-30T07:50:36.166Z,10.10
2018-07-30T07:51:36.076Z,8.20
2018-07-30T07:52:36.031Z,7.40
2018-07-30T07:53:36.402Z,7.10
2018-07-30T07:54:36.374Z,8.80
2018-07-30T07:55:36.357Z,8.50
2018-07-30T07:56:36.342Z,6.40
2018-07-30T07:57:36.024Z,7.30
2018-07-30T07:58:36.019Z,8.20
2018-07-30T07:59:36.342Z,8.50
2018-07-30T08:00:36.004Z,7.80
2018-07-30T08:01:35.999Z,7.40
2018-07-30T08:02:35.984Z,7.40
2018-07-30T08:03:36.319Z,7.90
2018-07-30T08:04:36.311Z,6.80
2018-07-30T08:05:35.962Z,7.60
2018-07-30T08:06:35.966Z,8.00
2018-07-30T08:07:36.277Z,8.00
2018-07-30T08:08:35.953Z,6.80
2018-07-30T08:09:36.307Z,7.30
2018-07-30T08:10:35.935Z,7.20
2018-07-30T08:11:35.937Z,6.90
2018-07-30T08:12:36.260Z,6.90
2018-07-30T08:13:35.926Z,6.80
2018-07-30T08:14:36.272Z,6.80
2018-07-30T08:15:35.895Z,7.90
2018-07-30T08:16:35.882Z,8.60
2018-07-30T08:17:36.234Z,9.10
2018-07-30T08:18:36.230Z,8.00
2018-07-30T08:19:36.214Z,7.50
2018-07-30T08:20:35.874Z,7.00
2018-07-30T08:21:36.204Z,9.30
2018-07-30T08:22:35.840Z,8.10
2018-07-30T08:23:35.856Z,8.90
2018-07-30T08:24:36.169Z,8.10
2018-07-30T08:25:35.827Z,8.20
2018-07-30T08:26:35.824Z,7.00
2018-07-30T08:27:35.812Z,6.70
2018-07-30T08:28:36.140Z,9.50
2018-07-30T08:29:36.149Z,7.80
2018-07-30T08:30:36.131Z,8.50
2018-07-30T08:31:35.788Z,6.70
2018-07-30T08:32:35.802Z,7.50
2018-07-30T08:33:36.132Z,7.30
2018-07-30T08:34:35.777Z,6.40
2018-07-30T08:35:35.775Z,8.00
2018-07-30T08:36:35.776Z,7.00
2018-07-30T08:37:36.087Z,7.30
2018-07-30T08:38:36.079Z,8.50
2018-07-30T08:39:35.735Z,7.60
2018-07-30T08:40:36.084Z,6.30
2018-07-30T08:41:35.741Z,7.40
2018-07-30T08:42:36.065Z,6.70
2018-07-30T08:43:36.066Z,6.50
2018-07-30T08:44:36.045Z,6.00
2018-07-30T08:45:36.059Z,7.60
2018-07-30T08:46:36.031Z,6.80
2018-07-30T08:47:36.047Z,7.40
2018-07-30T08:48:36.021Z,9.60
2018-07-30T08:49:36.022Z,6.40
2018-07-30T08:50:36.024Z,6.60
2018-07-30T08:51:35.653Z,7.00
2018-07-30T08:52:35.674Z,7.50
2018-07-30T08:53:36.012Z,9.40
2018-07-30T08:54:35.999Z,7.50
2018-07-30T08:55:35.643Z,6.90
2018-07-30T08:56:35.968Z,7.50
2018-07-30T08:57:35.962Z,8.00
2018-07-30T08:58:35.965Z,6.50
2018-07-30T08:59:35.952Z,7.10
2018-07-30T09:00:35.619Z,8.40
2018-07-30T09:01:35.619Z,7.70
2018-07-30T09:02:35.590Z,7.50
2018-07-30T09:03:35.944Z,6.80
2018-07-30T09:04:35.918Z,6.80
2018-07-30T09:05:35.574Z,8.70
2018-07-30T09:06:35.590Z,6.70
2018-07-30T09:07:35.899Z,7.10
2018-07-30T09:08:35.910Z,8.10
2018-07-30T09:09:35.906Z,6.30
2018-07-30T09:10:35.556Z,6.40
2018-07-30T09:11:35.894Z,6.70
2018-07-30T09:12:35.896Z,6.60
2018-07-30T09:13:35.882Z,6.80
2018-07-30T09:14:35.858Z,7.00
2018-07-30T09:15:35.535Z,7.30
2018-07-30T09:16:35.522Z,6.10
2018-07-30T09:17:35.839Z,6.60
2018-07-30T09:18:35.839Z,7.10
2018-07-30T09:19:35.824Z,7.50
2018-07-30T09:20:35.815Z,6.70
2018-07-30T09:21:35.809Z,7.40
2018-07-30T09:22:35.463Z,6.60
2018-07-30T09:23:35.452Z,6.60
2018-07-30T09:24:35.476Z,7.30
2018-07-30T09:25:35.806Z,6.40
2018-07-30T09:26:35.790Z,6.40
2018-07-30T09:27:35.445Z,6.40
2018-07-30T09:28:35.459Z,7.60
2018-07-30T09:29:35.754Z,6.60
2018-07-30T09:30:35.439Z,7.70
2018-07-30T09:31:35.430Z,7.30
2018-07-30T09:32:35.811Z,7.50
2018-07-30T09:33:35.755Z,6.80
2018-07-30T09:34:35.415Z,6.90
2018-07-30T09:35:35.732Z,7.00
2018-07-30T09:36:35.403Z,6.30
2018-07-30T09:37:35.728Z,6.60
2018-07-30T09:38:35.709Z,6.40
2018-07-30T09:39:35.766Z,6.60
2018-07-30T09:40:35.693Z,9.00
2018-07-30T09:41:35.705Z,7.30
2018-07-30T09:42:35.705Z,7.40
2018-07-30T09:43:35.674Z,9.30
2018-07-30T09:44:35.713Z,7.90
2018-07-30T09:45:35.683Z,7.50
2018-07-30T09:46:35.339Z,8.30
2018-07-30T09:47:35.324Z,7.60
2018-07-30T09:48:35.647Z,7.70
2018-07-30T09:49:35.308Z,7.30
2018-07-30T09:50:35.345Z,8.90
2018-07-30T09:51:35.624Z,7.00
2018-07-30T09:52:35.281Z,6.50
2018-07-30T09:53:35.275Z,6.70
2018-07-30T09:54:35.596Z,6.90
2018-07-30T09:55:35.619Z,8.00
2018-07-30T09:56:35.277Z,8.00
2018-07-30T09:57:35.604Z,6.90
2018-07-30T09:58:35.248Z,7.50
2018-07-30T09:59:35.248Z,6.80
2018-07-30T10:00:35.568Z,7.40
2018-07-30T10:01:35.561Z,6.70
2018-07-30T10:02:35.231Z,8.40
2018-07-30T10:03:35.566Z,6.20
2018-07-30T10:04:35.542Z,7.50
2018-07-30T10:05:35.216Z,6.30
2018-07-30T10:06:35.549Z,6.80
2018-07-30T10:07:35.629Z,8.40
2018-07-30T10:08:35.197Z,7.20
2018-07-30T10:09:35.511Z,7.60
2018-07-30T10:10:35.523Z,6.80
2018-07-30T10:11:35.515Z,6.70
2018-07-30T10:12:35.153Z,7.50
2018-07-30T10:13:35.496Z,7.10
2018-07-30T10:14:35.476Z,6.40
2018-07-30T10:15:35.162Z,6.70
2018-07-30T10:16:35.468Z,6.20
2018-07-30T10:17:35.134Z,7.20
2018-07-30T10:18:35.472Z,6.30
2018-07-30T10:19:35.450Z,5.80
2018-07-30T10:21:02.695Z,7.10
2018-07-30T10:21:35.455Z,6.60
2018-07-30T10:22:35.113Z,7.90
2018-07-30T10:23:35.458Z,6.90
2018-07-30T10:24:35.102Z,7.80
2018-07-30T10:25:35.426Z,5.80
2018-07-30T10:26:35.089Z,6.40
2018-07-30T10:27:35.421Z,6.80
2018-07-30T10:28:35.073Z,7.00
2018-07-30T10:29:35.384Z,8.00
2018-07-30T10:30:35.077Z,8.00
2018-07-30T10:31:35.364Z,6.60
2018-07-30T10:32:35.042Z,7.10
2018-07-30T10:33:35.032Z,6.40
2018-07-30T10:34:35.425Z,7.10
2018-07-30T10:35:35.023Z,7.20
2018-07-30T10:36:35.362Z,6.30
2018-07-30T10:37:35.352Z,6.70
2018-07-30T10:38:35.021Z,6.10
2018-07-30T10:39:34.984Z,6.00
2018-07-30T10:40:34.986Z,7.00
2018-07-30T10:41:35.310Z,6.30
2018-07-30T10:42:34.976Z,5.60
2018-07-30T10:43:34.988Z,7.90
2018-07-30T10:44:35.311Z,6.10
2018-07-30T10:45:34.948Z,6.40
2018-07-30T10:46:35.287Z,5.90
2018-07-30T10:47:34.935Z,7.00
2018-07-30T10:48:35.268Z,6.50
2018-07-30T10:49:35.259Z,6.80
2018-07-30T10:50:34.924Z,6.30
2018-07-30T10:51:35.266Z,5.90
2018-07-30T10:52:35.259Z,6.30
2018-07-30T10:53:35.232Z,6.30
2018-07-30T10:54:35.234Z,7.70
2018-07-30T10:55:35.223Z,7.70
2018-07-30T10:56:35.238Z,7.40
2018-07-30T10:57:34.871Z,6.70
2018-07-30T10:58:35.209Z,6.60
2018-07-30T10:59:34.878Z,6.20
2018-07-30T11:00:34.843Z,7.40
2018-07-30T11:01:34.848Z,8.00
2018-07-30T11:02:34.852Z,6.10
2018-07-30T11:03:35.188Z,5.50
2018-07-30T11:04:34.831Z,6.10
2018-07-30T11:05:34.822Z,6.10
2018-07-30T11:06:35.169Z,6.70
2018-07-30T11:07:34.824Z,6.70
2018-07-30T11:08:35.137Z,6.00
2018-07-30T11:09:35.181Z,6.00
2018-07-30T11:10:35.135Z,7.40
2018-07-30T11:11:35.119Z,6.10
2018-07-30T11:12:34.807Z,6.40
2018-07-30T11:13:34.759Z,6.70
2018-07-30T11:14:35.124Z,7.30
2018-07-30T11:15:35.112Z,6.30
2018-07-30T11:16:35.104Z,6.60
2018-07-30T11:17:35.079Z,6.60
2018-07-30T11:18:34.727Z,6.10
2018-07-30T11:19:34.749Z,7.40
2018-07-30T11:20:35.063Z,6.30
2018-07-30T11:21:35.075Z,6.20
2018-07-30T11:22:35.069Z,6.60
2018-07-30T11:23:35.035Z,6.30
2018-07-30T11:24:35.033Z,6.00
2018-07-30T11:25:35.033Z,6.30
2018-07-30T11:26:35.029Z,5.70
2018-07-30T11:27:35.039Z,6.20
2018-07-30T11:28:34.693Z,6.30
2018-07-30T11:29:34.680Z,6.40
2018-07-30T11:30:34.997Z,6.40
2018-07-30T11:31:34.674Z,5.90
2018-07-30T11:32:35.001Z,6.00
2018-07-30T11:33:34.987Z,6.10
2018-07-30T11:34:34.633Z,5.80
2018-07-30T11:35:34.976Z,6.10
2018-07-30T11:36:34.666Z,5.90
2018-07-30T11:37:34.952Z,5.90
2018-07-30T11:38:34.939Z,7.80
2018-07-30T11:39:34.624Z,5.70
2018-07-30T11:40:34.932Z,6.30
2018-07-30T11:41:34.602Z,8.30
2018-07-30T11:42:34.920Z,6.20
2018-07-30T11:43:34.621Z,6.70
2018-07-30T11:44:34.912Z,6.00
2018-07-30T11:45:34.595Z,6.50
2018-07-30T11:46:34.567Z,6.10
2018-07-30T11:47:34.888Z,5.90
2018-07-30T11:48:34.569Z,6.40
2018-07-30T11:49:34.541Z,6.20
2018-07-30T11:50:34.872Z,5.60
2018-07-30T11:51:34.865Z,6.00
2018-07-30T11:52:34.528Z,6.60
2018-07-30T11:53:34.866Z,7.40
2018-07-30T11:54:34.865Z,7.10
2018-07-30T11:55:34.859Z,6.30
2018-07-30T11:56:34.849Z,6.00
2018-07-30T11:57:34.510Z,5.60
2018-07-30T11:58:34.490Z,7.00
2018-07-30T11:59:34.505Z,6.70
2018-07-30T12:00:34.807Z,6.00
2018-07-30T12:01:34.452Z,5.80
2018-07-30T12:02:34.480Z,7.10
2018-07-30T12:03:34.809Z,5.90
2018-07-30T12:04:34.797Z,5.90
2018-07-30T12:05:34.773Z,6.70
2018-07-30T12:06:34.454Z,6.60
2018-07-30T12:07:34.445Z,6.20
2018-07-30T12:08:34.436Z,6.80
2018-07-30T12:09:34.750Z,6.10
2018-07-30T12:10:34.763Z,5.70
2018-07-30T12:11:34.756Z,6.20
2018-07-30T12:12:34.415Z,7.30
2018-07-30T12:13:34.762Z,6.50
2018-07-30T12:14:34.721Z,5.60
2018-07-30T12:15:34.709Z,7.90
2018-07-30T12:16:34.713Z,5.90
2018-07-30T12:17:34.363Z,8.50
2018-07-30T12:18:34.709Z,6.70
2018-07-30T12:19:34.682Z,6.10
2018-07-30T12:20:34.351Z,6.30
2018-07-30T12:21:34.339Z,5.90
2018-07-30T12:22:34.353Z,6.20
2018-07-30T12:23:34.658Z,7.00
2018-07-30T12:24:34.316Z,6.10
2018-07-30T12:25:34.330Z,6.40
2018-07-30T12:26:34.640Z,5.70
2018-07-30T12:27:34.652Z,6.40
2018-07-30T12:28:34.644Z,6.60
2018-07-30T12:29:34.636Z,6.10
2018-07-30T12:30:34.311Z,5.90
2018-07-30T12:31:34.277Z,6.00
2018-07-30T12:32:34.274Z,6.50
2018-07-30T12:33:34.281Z,5.90
2018-07-30T12:34:34.262Z,6.10
2018-07-30T12:35:34.590Z,7.20
2018-07-30T12:36:34.615Z,6.30
2018-07-30T12:37:34.589Z,7.20
2018-07-30T12:38:34.251Z,6.70
2018-07-30T12:39:34.234Z,6.00
2018-07-30T12:40:34.231Z,6.20
2018-07-30T12:41:34.573Z,6.40
2018-07-30T12:42:34.225Z,6.70
2018-07-30T12:43:34.530Z,6.80
2018-07-30T12:44:34.197Z,6.30
2018-07-30T12:45:34.202Z,6.40
2018-07-30T12:46:34.166Z,7.50
2018-07-30T12:47:34.185Z,7.40
2018-07-30T12:48:34.181Z,5.90
2018-07-30T12:49:34.483Z,6.90
2018-07-30T12:50:34.254Z,6.40
2018-07-30T12:51:34.164Z,6.80
2018-07-30T12:52:34.147Z,6.10
2018-07-30T12:53:34.155Z,6.80
2018-07-30T12:54:34.125Z,6.40
2018-07-30T12:55:34.477Z,6.70
2018-07-30T12:56:34.128Z,6.30
2018-07-30T12:57:34.459Z,7.30
2018-07-30T12:58:34.121Z,6.90
2018-07-30T12:59:34.445Z,7.00
2018-07-30T13:00:34.101Z,8.50
2018-07-30T13:01:34.432Z,6.50
2018-07-30T13:02:34.408Z,6.00
2018-07-30T13:03:34.418Z,7.00
2018-07-30T13:04:34.411Z,5.90
2018-07-30T13:05:34.081Z,6.60
2018-07-30T13:06:34.065Z,6.40
2018-07-30T13:07:34.400Z,6.60
2018-07-30T13:08:34.031Z,6.50
2018-07-30T13:09:34.381Z,6.50
2018-07-30T13:10:34.378Z,6.60
2018-07-30T13:11:34.348Z,6.70
2018-07-30T13:12:34.008Z,6.70
2018-07-30T13:13:34.381Z,6.90
2018-07-30T13:14:34.322Z,5.90
2018-07-30T13:15:34.010Z,6.80
2018-07-30T13:16:34.002Z,6.70
2018-07-30T13:17:33.992Z,6.70
2018-07-30T13:18:34.321Z,6.80
2018-07-30T13:19:34.301Z,6.20
2018-07-30T13:20:33.953Z,6.90
2018-07-30T13:21:34.313Z,7.90
2018-07-30T13:22:34.281Z,7.20
2018-07-30T13:23:33.954Z,6.50
2018-07-30T13:24:34.269Z,7.20
2018-07-30T13:25:34.280Z,6.60
2018-07-30T13:26:34.316Z,7.10
2018-07-30T13:27:34.248Z,6.30
2018-07-30T13:28:34.238Z,6.40
2018-07-30T13:29:33.920Z,7.40
2018-07-30T13:30:34.224Z,6.80
2018-07-30T13:31:34.237Z,6.90
2018-07-30T13:32:34.224Z,6.90
2018-07-30T13:33:33.900Z,6.60
2018-07-30T13:34:33.879Z,6.90
2018-07-30T13:35:34.217Z,5.90
2018-07-30T13:36:33.872Z,6.40
2018-07-30T13:37:34.201Z,6.60
2018-07-30T13:38:33.843Z,6.90
2018-07-30T13:39:34.189Z,7.00
2018-07-30T13:40:33.847Z,6.90
2018-07-30T13:41:34.155Z,6.60
2018-07-30T13:42:33.832Z,7.10
2018-07-30T13:43:33.826Z,7.40
2018-07-30T13:44:34.178Z,7.30
2018-07-30T13:45:34.128Z,7.30
2018-07-30T13:46:34.123Z,8.40
2018-07-30T13:47:34.138Z,7.40
2018-07-30T13:48:34.109Z,6.80
2018-07-30T13:49:33.787Z,6.90
2018-07-30T13:50:34.101Z,7.30
2018-07-30T13:51:33.779Z,8.60
2018-07-30T13:52:34.085Z,7.10
2018-07-30T13:53:33.754Z,7.50
2018-07-30T13:54:34.116Z,6.90
2018-07-30T13:55:34.085Z,6.70
2018-07-30T13:56:34.059Z,7.60
2018-07-30T13:57:33.718Z,7.50
2018-07-30T13:58:33.720Z,7.00
2018-07-30T13:59:34.040Z,6.80
2018-07-30T14:00:34.051Z,7.00
2018-07-30T14:01:34.042Z,7.10
2018-07-30T14:02:33.681Z,6.80
2018-07-30T14:03:33.688Z,6.90
2018-07-30T14:04:33.695Z,7.60
2018-07-30T14:05:34.016Z,6.90
2018-07-30T14:06:34.132Z,6.80
2018-07-30T14:07:34.014Z,7.00
2018-07-30T14:08:34.007Z,6.90
2018-07-30T14:09:33.642Z,7.20
2018-07-30T14:10:33.988Z,6.80
2018-07-30T14:11:33.631Z,8.50
2018-07-30T14:12:33.623Z,7.10
2018-07-30T14:13:33.638Z,7.40
2018-07-30T14:14:33.943Z,7.80
2018-07-30T14:15:33.619Z,7.30
2018-07-30T14:16:33.928Z,7.20
2018-07-30T14:17:33.940Z,6.70
2018-07-30T14:18:33.604Z,8.00
2018-07-30T14:19:33.915Z,6.80
2018-07-30T14:20:33.585Z,6.90
2018-07-30T14:21:33.568Z,6.70
2018-07-30T14:22:33.888Z,6.90
2018-07-30T14:23:33.883Z,7.70
2018-07-30T14:24:33.876Z,7.00
2018-07-30T14:25:33.868Z,8.10
2018-07-30T14:26:33.525Z,7.40
2018-07-30T14:27:33.864Z,7.20
2018-07-30T14:28:33.851Z,8.20
2018-07-30T14:29:33.844Z,6.60